createdAt,value
2023-04-09T00:03:30.842Z,22.53
2023-04-09T00:08:33.759Z,23.85
2023-04-09T00:13:39.496Z,22.92
2023-04-09T00:18:44.157Z,24.13
2023-04-09T00:23:46.947Z,22.17
2023-04-09T00:28:49.938Z,22.15
2023-04-09T00:33:54.197Z,22.92
2023-04-09T00:38:56.948Z,22.43
2023-04-09T00:43:59.731Z,20.75
2023-04-09T00:49:04.778Z,22.73
2023-04-09T00:54:09.293Z,23.03
2023-04-09T00:59:12.764Z,20.07
2023-04-09T01:04:17.064Z,20.40
2023-04-09T01:09:24.737Z,19.77
2023-04-09T01:14:31.362Z,20.55
2023-04-09T01:19:45.770Z,15.98
2023-04-09T01:25:01.789Z,15.85
2023-04-09T01:30:15.415Z,18.00
2023-04-09T01:35:19.803Z,19.25
2023-04-09T01:40:22.697Z,18.47
2023-04-09T01:45:27.201Z,19.27
2023-04-09T01:50:30.785Z,19.60
2023-04-09T01:55:33.597Z,21.00
2023-04-09T02:00:40.361Z,20.05
2023-04-09T02:05:47.103Z,21.63
2023-04-09T02:10:53.702Z,20.90
2023-04-09T02:15:57.948Z,21.23
2023-04-09T02:21:01.506Z,21.93
2023-04-09T02:26:04.358Z,23.35
2023-04-09T02:31:08.552Z,23.60
2023-04-09T02:36:12.449Z,23.20
2023-04-09T02:41:15.392Z,24.27
2023-04-09T02:46:19.591Z,22.30
2023-04-09T02:51:22.660Z,23.63
2023-04-09T02:56:25.633Z,22.63
2023-04-09T03:01:29.987Z,22.38
2023-04-09T03:06:32.926Z,22.27
2023-04-09T03:11:35.752Z,23.67
2023-04-09T03:16:39.933Z,23.35
2023-04-09T03:21:42.780Z,23.63
2023-04-09T03:26:46.336Z,22.77
2023-04-09T03:31:53.088Z,22.37
2023-04-09T03:36:56.075Z,22.77
2023-04-09T03:42:02.141Z,23.47
2023-04-09T03:47:12.264Z,25.07
2023-04-09T03:52:15.703Z,22.07
2023-04-09T03:57:21.627Z,23.98
2023-04-09T04:02:32.005Z,23.05
2023-04-09T04:07:39.111Z,24.57
2023-04-09T04:12:46.933Z,25.20
2023-04-09T04:17:56.614Z,24.08
2023-04-09T04:23:11.607Z,25.27
2023-04-09T04:28:22.245Z,26.80
2023-04-09T04:33:26.790Z,26.00
2023-04-09T04:38:31.947Z,23.25
2023-04-09T04:43:38.094Z,22.85
2023-04-09T04:48:42.648Z,22.37
2023-04-09T04:53:46.555Z,23.33
2023-04-09T04:58:50.992Z,22.73
2023-04-09T05:03:57.554Z,24.08
2023-04-09T05:09:07.920Z,23.92
2023-04-09T05:14:21.007Z,25.88
2023-04-09T05:19:26.256Z,24.55
2023-04-09T05:24:35.160Z,26.23
2023-04-09T05:29:38.869Z,26.75
2023-04-09T05:34:45.485Z,22.25
2023-04-09T05:39:48.824Z,23.77
2023-04-09T05:44:51.861Z,24.50
2023-04-09T05:49:58.034Z,23.93
2023-04-09T05:55:00.963Z,24.15
2023-04-09T06:00:18.287Z,22.77
2023-04-09T06:05:23.449Z,20.87
2023-04-09T06:10:27.823Z,22.70
2023-04-09T06:15:30.810Z,21.83
2023-04-09T06:20:35.215Z,21.63
2023-04-09T06:25:38.195Z,22.02
2023-04-09T06:30:41.317Z,20.33
2023-04-09T06:35:45.603Z,21.42
2023-04-09T06:40:48.384Z,22.17
2023-04-09T06:45:51.484Z,22.00
2023-04-09T06:50:55.788Z,20.77
2023-04-09T06:55:58.710Z,22.17
2023-04-09T07:01:01.815Z,20.88
2023-04-09T07:06:06.305Z,20.63
2023-04-09T07:11:09.191Z,21.65
2023-04-09T07:16:12.039Z,20.58
2023-04-09T07:21:16.357Z,23.10
2023-04-09T07:26:19.195Z,20.43
2023-04-09T07:31:22.042Z,21.73
2023-04-09T07:36:26.673Z,21.03
2023-04-09T07:41:29.487Z,20.73
2023-04-09T07:46:32.369Z,21.50
2023-04-09T07:51:36.620Z,19.77
2023-04-09T07:56:39.383Z,21.92
2023-04-09T08:01:42.357Z,19.02
2023-04-09T08:06:50.008Z,19.77
2023-04-09T08:11:53.335Z,19.13
2023-04-09T08:16:56.417Z,19.17
2023-04-09T08:22:00.908Z,19.35
2023-04-09T08:27:04.636Z,18.73
2023-04-09T08:32:08.210Z,18.17
2023-04-09T08:37:12.503Z,17.58
2023-04-09T08:42:16.140Z,17.70
2023-04-09T08:47:19.353Z,18.80
2023-04-09T08:52:32.007Z,17.58
2023-04-09T08:57:38.736Z,17.45
2023-04-09T09:03:02.812Z,17.10
2023-04-09T09:08:08.456Z,16.65
2023-04-09T09:13:22.441Z,17.45
2023-04-09T09:18:39.387Z,16.70
2023-04-09T09:23:43.857Z,16.13
2023-04-09T09:28:48.171Z,17.58
2023-04-09T09:33:51.729Z,17.77
2023-04-09T09:38:57.303Z,17.75
2023-04-09T09:44:00.566Z,18.42
2023-04-09T09:49:03.443Z,17.23
2023-04-09T09:54:09.249Z,17.65
2023-04-09T09:59:17.188Z,18.77
2023-04-09T10:04:21.361Z,18.73
2023-04-09T10:09:28.427Z,18.55
2023-04-09T10:14:31.401Z,19.90
2023-04-09T10:19:38.385Z,19.55
2023-04-09T10:24:42.647Z,21.30
2023-04-09T10:29:46.310Z,20.80
2023-04-09T10:34:50.603Z,20.70
2023-04-09T10:39:56.335Z,21.17
2023-04-09T10:45:07.304Z,18.88
2023-04-09T10:50:17.787Z,18.55
2023-04-09T10:55:44.435Z,20.70
2023-04-09T11:00:48.861Z,19.50
2023-04-09T11:06:03.218Z,19.65
2023-04-09T11:11:07.461Z,19.07
2023-04-09T11:16:10.299Z,19.42
2023-04-09T11:21:13.517Z,18.45
2023-04-09T11:26:17.645Z,18.15
2023-04-09T11:31:20.518Z,19.10
2023-04-09T11:36:23.515Z,18.08
2023-04-09T11:41:38.106Z,18.30
2023-04-09T11:46:42.750Z,20.08
2023-04-09T11:51:45.616Z,20.20
2023-04-09T11:56:55.679Z,18.83
2023-04-09T12:01:58.990Z,17.88
2023-04-09T12:07:02.047Z,19.42
2023-04-09T12:12:11.236Z,18.88
2023-04-09T12:17:14.136Z,19.13
2023-04-09T12:22:17.004Z,19.40
2023-04-09T12:27:21.192Z,18.20
2023-04-09T12:32:24.057Z,18.35
2023-04-09T12:37:28.649Z,18.25
2023-04-09T12:42:32.809Z,19.48
2023-04-09T12:47:35.719Z,18.65
2023-04-09T12:52:38.617Z,18.70
2023-04-09T12:57:44.591Z,19.80
2023-04-09T13:02:47.663Z,20.55
2023-04-09T13:07:51.452Z,19.05
2023-04-09T13:12:55.669Z,19.63
2023-04-09T13:17:58.506Z,18.77
2023-04-09T13:23:01.381Z,20.05
2023-04-09T13:28:05.579Z,18.70
2023-04-09T13:33:08.305Z,18.88
2023-04-09T13:38:11.215Z,19.55
2023-04-09T13:43:15.501Z,19.90
2023-04-09T13:48:18.336Z,19.90
2023-04-09T13:53:23.756Z,19.03
2023-04-09T13:58:27.918Z,18.73
2023-04-09T14:03:30.921Z,19.23
2023-04-09T14:08:33.800Z,18.00
2023-04-09T14:13:37.984Z,19.48
2023-04-09T14:18:41.699Z,19.05
2023-04-09T14:23:44.581Z,18.80
2023-04-09T14:28:48.785Z,18.17
2023-04-09T14:33:51.730Z,17.47
2023-04-09T14:38:57.456Z,18.10
2023-04-09T14:44:02.060Z,16.97
2023-04-09T14:49:04.842Z,17.63
2023-04-09T14:54:07.749Z,16.43
2023-04-09T14:59:11.858Z,17.15
2023-04-09T15:04:15.035Z,16.67
2023-04-09T15:09:18.047Z,15.93
2023-04-09T15:14:23.730Z,14.63
2023-04-09T15:19:26.629Z,13.25
2023-04-09T15:24:29.515Z,11.82
2023-04-09T15:29:33.944Z,11.85
2023-04-09T15:34:36.784Z,10.75
2023-04-09T15:39:39.723Z,11.68
2023-04-09T15:44:44.666Z,14.05
2023-04-09T15:50:12.781Z,14.65
2023-04-09T15:55:16.047Z,14.32
2023-04-09T16:00:20.360Z,13.60
2023-04-09T16:05:23.369Z,14.20
2023-04-09T16:10:26.453Z,13.90
2023-04-09T16:15:31.115Z,14.30
2023-04-09T16:20:33.934Z,15.33
2023-04-09T16:25:37.384Z,15.18
2023-04-09T16:30:41.979Z,15.43
2023-04-09T16:35:44.902Z,14.98
2023-04-09T16:40:47.802Z,15.52
2023-04-09T16:45:52.568Z,14.85
2023-04-09T16:50:55.427Z,14.10
2023-04-09T16:55:58.241Z,15.17
2023-04-09T17:01:02.592Z,14.57
2023-04-09T17:06:05.998Z,15.48
2023-04-09T17:11:08.992Z,14.00
2023-04-09T17:16:14.327Z,14.10
2023-04-09T17:21:18.410Z,14.20
2023-04-09T17:26:21.370Z,14.47
2023-04-09T17:31:26.652Z,14.27
2023-04-09T17:36:29.704Z,14.30
2023-04-09T17:41:32.577Z,13.68
2023-04-09T17:46:36.814Z,12.83
2023-04-09T17:51:39.821Z,13.50
2023-04-09T17:56:42.709Z,13.85
2023-04-09T18:01:47.021Z,13.38
2023-04-09T18:06:49.961Z,12.88
2023-04-09T18:11:56.281Z,12.80
2023-04-09T18:17:01.154Z,12.53
2023-04-09T18:22:04.061Z,11.80
2023-04-09T18:27:07.013Z,11.53
2023-04-09T18:32:11.162Z,12.50
2023-04-09T18:37:14.399Z,12.57
2023-04-09T18:42:17.148Z,12.15
2023-04-09T18:47:21.362Z,12.95
2023-04-09T18:52:24.327Z,12.68
2023-04-09T18:57:27.340Z,12.07
2023-04-09T19:02:31.738Z,11.73
2023-04-09T19:07:34.912Z,11.98
2023-04-09T19:12:38.772Z,12.00
2023-04-09T19:17:43.098Z,12.32
2023-04-09T19:22:47.862Z,11.93
2023-04-09T19:27:53.539Z,12.43
2023-04-09T19:32:57.766Z,12.40
2023-04-09T19:38:01.602Z,13.00
2023-04-09T19:43:06.221Z,13.85
2023-04-09T19:48:10.639Z,13.25
2023-04-09T19:53:13.627Z,13.57
2023-04-09T19:58:16.562Z,14.25
2023-04-09T20:03:21.010Z,12.52
2023-04-09T20:08:23.997Z,11.88
2023-04-09T20:13:26.844Z,11.40
2023-04-09T20:18:31.520Z,11.83
2023-04-09T20:23:35.745Z,11.13
2023-04-09T20:28:38.591Z,11.35
2023-04-09T20:33:42.852Z,12.48
2023-04-09T20:38:45.849Z,11.65
2023-04-09T20:43:48.635Z,12.13
2023-04-09T20:48:53.086Z,11.70
2023-04-09T20:53:56.181Z,11.13
2023-04-09T20:58:59.473Z,11.38
2023-04-09T21:04:03.840Z,11.50
2023-04-09T21:09:06.843Z,11.40
2023-04-09T21:14:11.091Z,11.57
2023-04-09T21:19:15.504Z,11.83
2023-04-09T21:24:18.366Z,12.23
2023-04-09T21:29:21.906Z,12.32
2023-04-09T21:34:26.224Z,11.97
2023-04-09T21:39:29.886Z,11.98
2023-04-09T21:44:32.745Z,12.18
2023-04-09T21:49:40.177Z,12.95
2023-04-09T21:54:43.186Z,12.50
2023-04-09T21:59:46.049Z,12.73
2023-04-09T22:04:50.220Z,12.20
2023-04-09T22:09:55.268Z,12.38
2023-04-09T22:14:58.067Z,12.35
2023-04-09T22:20:02.671Z,12.27
2023-04-09T22:25:06.997Z,10.95
2023-04-09T22:30:10.296Z,10.73
2023-04-09T22:35:18.028Z,10.73
2023-04-09T22:40:20.895Z,10.67
2023-04-09T22:45:24.005Z,10.93
2023-04-09T22:50:28.985Z,10.88
2023-04-09T22:55:31.898Z,10.55
2023-04-09T23:00:34.893Z,10.60
2023-04-09T23:05:39.643Z,11.07
2023-04-09T23:10:42.515Z,10.63
2023-04-09T23:15:45.499Z,10.20
2023-04-09T23:20:49.668Z,10.60
2023-04-09T23:25:52.539Z,10.37
2023-04-09T23:30:55.788Z,10.97
2023-04-09T23:36:00.124Z,11.23
2023-04-09T23:41:25.361Z,10.77
2023-04-09T23:46:28.445Z,10.27
2023-04-09T23:51:32.724Z,9.88
2023-04-09T23:56:36.185Z,10.13
